sensor_id;sensor_type;location;lat;lon;timestamp;P1;durP1;ratioP1;P2;durP2;ratioP2
48363;SDS011;34170;54.364;18.582;2023-12-07T00:00:27;84.78;;;32.38;;
48363;SDS011;34170;54.364;18.582;2023-12-07T00:03:14;69.53;;;25.42;;
48363;SDS011;34170;54.364;18.582;2023-12-07T00:05:43;88.32;;;34.67;;
48363;SDS011;34170;54.364;18.582;2023-12-07T00:08:10;78.28;;;26.83;;
48363;SDS011;34170;54.364;18.582;2023-12-07T00:10:38;75.55;;;26.75;;
48363;SDS011;34170;54.364;18.582;2023-12-07T00:13:05;84.22;;;29.42;;
48363;SDS011;34170;54.364;18.582;2023-12-07T00:15:33;73.65;;;27.60;;
48363;SDS011;34170;54.364;18.582;2023-12-07T00:18:01;76.50;;;26.67;;
48363;SDS011;34170;54.364;18.582;2023-12-07T00:20:30;69.90;;;24.85;;
48363;SDS011;34170;54.364;18.582;2023-12-07T00:22:57;85.82;;;28.15;;
48363;SDS011;34170;54.364;18.582;2023-12-07T00:25:25;87.25;;;28.77;;
48363;SDS011;34170;54.364;18.582;2023-12-07T00:27:53;73.50;;;27.60;;
48363;SDS011;34170;54.364;18.582;2023-12-07T00:30:20;77.05;;;27.23;;
48363;SDS011;34170;54.364;18.582;2023-12-07T00:32:47;79.70;;;28.10;;
48363;SDS011;34170;54.364;18.582;2023-12-07T00:35:15;80.50;;;28.42;;
48363;SDS011;34170;54.364;18.582;2023-12-07T00:37:43;79.15;;;28.40;;
48363;SDS011;34170;54.364;18.582;2023-12-07T00:40:11;78.80;;;27.70;;
48363;SDS011;34170;54.364;18.582;2023-12-07T00:42:39;82.28;;;30.95;;
48363;SDS011;34170;54.364;18.582;2023-12-07T00:45:08;81.57;;;28.60;;
48363;SDS011;34170;54.364;18.582;2023-12-07T00:47:35;84.97;;;34.70;;
48363;SDS011;34170;54.364;18.582;2023-12-07T00:50:03;89.97;;;35.30;;
48363;SDS011;34170;54.364;18.582;2023-12-07T00:52:31;87.07;;;27.83;;
48363;SDS011;34170;54.364;18.582;2023-12-07T00:54:59;80.20;;;27.48;;
48363;SDS011;34170;54.364;18.582;2023-12-07T00:57:38;77.10;;;27.90;;
48363;SDS011;34170;54.364;18.582;2023-12-07T01:00:06;76.57;;;27.30;;
48363;SDS011;34170;54.364;18.582;2023-12-07T01:02:35;77.78;;;27.15;;
48363;SDS011;34170;54.364;18.582;2023-12-07T01:05:02;82.22;;;29.98;;
48363;SDS011;34170;54.364;18.582;2023-12-07T01:07:30;83.72;;;28.38;;
48363;SDS011;34170;54.364;18.582;2023-12-07T01:09:58;75.90;;;27.42;;
48363;SDS011;34170;54.364;18.582;2023-12-07T01:12:25;74.18;;;29.00;;
48363;SDS011;34170;54.364;18.582;2023-12-07T01:14:53;76.13;;;28.60;;
48363;SDS011;34170;54.364;18.582;2023-12-07T01:17:20;76.75;;;24.27;;
48363;SDS011;34170;54.364;18.582;2023-12-07T01:19:48;77.57;;;27.15;;
48363;SDS011;34170;54.364;18.582;2023-12-07T01:22:15;75.80;;;26.88;;
48363;SDS011;34170;54.364;18.582;2023-12-07T01:24:43;74.07;;;26.00;;
48363;SDS011;34170;54.364;18.582;2023-12-07T01:27:11;82.70;;;27.63;;
48363;SDS011;34170;54.364;18.582;2023-12-07T01:29:39;78.22;;;26.63;;
48363;SDS011;34170;54.364;18.582;2023-12-07T01:32:07;76.72;;;27.98;;
48363;SDS011;34170;54.364;18.582;2023-12-07T01:34:36;78.57;;;27.20;;
48363;SDS011;34170;54.364;18.582;2023-12-07T01:37:03;81.47;;;28.27;;
48363;SDS011;34170;54.364;18.582;2023-12-07T01:39:31;83.15;;;29.13;;
48363;SDS011;34170;54.364;18.582;2023-12-07T01:41:58;89.07;;;28.20;;
48363;SDS011;34170;54.364;18.582;2023-12-07T01:44:26;76.05;;;27.48;;
48363;SDS011;34170;54.364;18.582;2023-12-07T01:46:54;77.82;;;28.50;;
48363;SDS011;34170;54.364;18.582;2023-12-07T01:49:22;69.57;;;25.55;;
48363;SDS011;34170;54.364;18.582;2023-12-07T01:51:50;74.95;;;26.30;;
48363;SDS011;34170;54.364;18.582;2023-12-07T01:54:18;75.78;;;28.17;;
48363;SDS011;34170;54.364;18.582;2023-12-07T01:56:46;83.38;;;27.65;;
48363;SDS011;34170;54.364;18.582;2023-12-07T01:59:15;76.65;;;27.02;;
48363;SDS011;34170;54.364;18.582;2023-12-07T02:01:42;71.65;;;25.48;;
48363;SDS011;34170;54.364;18.582;2023-12-07T02:04:11;74.28;;;29.15;;
48363;SDS011;34170;54.364;18.582;2023-12-07T02:06:38;80.80;;;28.52;;
48363;SDS011;34170;54.364;18.582;2023-12-07T02:09:06;72.95;;;26.33;;
48363;SDS011;34170;54.364;18.582;2023-12-07T02:11:35;75.70;;;27.38;;
48363;SDS011;34170;54.364;18.582;2023-12-07T02:14:03;78.53;;;28.52;;
48363;SDS011;34170;54.364;18.582;2023-12-07T02:16:31;74.68;;;26.60;;
48363;SDS011;34170;54.364;18.582;2023-12-07T02:19:03;73.35;;;25.65;;
48363;SDS011;34170;54.364;18.582;2023-12-07T02:21:56;68.80;;;25.77;;
48363;SDS011;34170;54.364;18.582;2023-12-07T02:24:29;73.07;;;26.95;;
48363;SDS011;34170;54.364;18.582;2023-12-07T02:27:00;70.60;;;23.70;;
48363;SDS011;34170;54.364;18.582;2023-12-07T02:29:28;72.60;;;27.42;;
48363;SDS011;34170;54.364;18.582;2023-12-07T02:31:55;70.97;;;27.10;;
48363;SDS011;34170;54.364;18.582;2023-12-07T02:34:23;76.80;;;27.83;;
48363;SDS011;34170;54.364;18.582;2023-12-07T02:36:51;74.25;;;27.33;;
48363;SDS011;34170;54.364;18.582;2023-12-07T02:39:22;75.30;;;27.65;;
48363;SDS011;34170;54.364;18.582;2023-12-07T02:41:51;67.32;;;24.13;;
48363;SDS011;34170;54.364;18.582;2023-12-07T02:44:20;83.45;;;29.40;;
48363;SDS011;34170;54.364;18.582;2023-12-07T02:46:48;77.93;;;25.88;;
48363;SDS011;34170;54.364;18.582;2023-12-07T02:49:16;70.05;;;25.80;;
48363;SDS011;34170;54.364;18.582;2023-12-07T02:51:43;72.18;;;25.45;;
48363;SDS011;34170;54.364;18.582;2023-12-07T02:54:11;70.40;;;25.25;;
48363;SDS011;34170;54.364;18.582;2023-12-07T02:56:38;71.28;;;24.50;;
48363;SDS011;34170;54.364;18.582;2023-12-07T02:59:06;72.68;;;25.77;;
48363;SDS011;34170;54.364;18.582;2023-12-07T03:01:33;74.70;;;27.42;;
48363;SDS011;34170;54.364;18.582;2023-12-07T03:04:01;74.03;;;26.55;;
48363;SDS011;34170;54.364;18.582;2023-12-07T03:06:29;66.53;;;23.70;;
48363;SDS011;34170;54.364;18.582;2023-12-07T03:08:56;70.57;;;25.13;;
48363;SDS011;34170;54.364;18.582;2023-12-07T03:11:24;73.10;;;25.60;;
48363;SDS011;34170;54.364;18.582;2023-12-07T03:13:52;73.80;;;27.33;;
48363;SDS011;34170;54.364;18.582;2023-12-07T03:16:20;78.43;;;26.52;;
48363;SDS011;34170;54.364;18.582;2023-12-07T03:18:47;71.40;;;25.88;;
48363;SDS011;34170;54.364;18.582;2023-12-07T03:21:15;80.38;;;27.85;;
48363;SDS011;34170;54.364;18.582;2023-12-07T03:23:43;83.82;;;27.80;;
48363;SDS011;34170;54.364;18.582;2023-12-07T03:26:10;72.50;;;25.05;;
48363;SDS011;34170;54.364;18.582;2023-12-07T03:28:38;76.45;;;24.80;;
48363;SDS011;34170;54.364;18.582;2023-12-07T03:31:05;76.05;;;25.75;;
48363;SDS011;34170;54.364;18.582;2023-12-07T03:33:33;79.40;;;27.60;;
48363;SDS011;34170;54.364;18.582;2023-12-07T03:36:00;76.53;;;27.45;;
48363;SDS011;34170;54.364;18.582;2023-12-07T03:38:30;69.22;;;24.77;;
48363;SDS011;34170;54.364;18.582;2023-12-07T03:40:57;75.10;;;25.15;;
48363;SDS011;34170;54.364;18.582;2023-12-07T03:43:25;78.47;;;28.45;;
48363;SDS011;34170;54.364;18.582;2023-12-07T03:45:52;79.78;;;26.92;;
48363;SDS011;34170;54.364;18.582;2023-12-07T03:48:20;68.75;;;25.77;;
48363;SDS011;34170;54.364;18.582;2023-12-07T03:50:47;75.57;;;26.98;;
48363;SDS011;34170;54.364;18.582;2023-12-07T03:53:15;69.68;;;25.70;;
48363;SDS011;34170;54.364;18.582;2023-12-07T03:55:42;77.00;;;26.73;;
48363;SDS011;34170;54.364;18.582;2023-12-07T03:58:10;80.00;;;25.77;;
48363;SDS011;34170;54.364;18.582;2023-12-07T04:00:38;72.25;;;24.70;;
48363;SDS011;34170;54.364;18.582;2023-12-07T04:03:06;71.00;;;26.27;;
48363;SDS011;34170;54.364;18.582;2023-12-07T04:05:33;71.60;;;24.38;;
48363;SDS011;34170;54.364;18.582;2023-12-07T04:08:01;78.70;;;28.10;;
48363;SDS011;34170;54.364;18.582;2023-12-07T04:10:28;63.15;;;23.48;;
48363;SDS011;34170;54.364;18.582;2023-12-07T04:12:56;74.03;;;25.63;;
48363;SDS011;34170;54.364;18.582;2023-12-07T04:15:23;70.05;;;24.27;;
48363;SDS011;34170;54.364;18.582;2023-12-07T04:17:51;84.28;;;31.08;;
48363;SDS011;34170;54.364;18.582;2023-12-07T04:20:19;71.88;;;27.27;;
48363;SDS011;34170;54.364;18.582;2023-12-07T04:22:47;74.60;;;25.23;;
48363;SDS011;34170;54.364;18.582;2023-12-07T04:25:15;78.10;;;28.13;;
48363;SDS011;34170;54.364;18.582;2023-12-07T04:27:42;75.25;;;26.88;;
48363;SDS011;34170;54.364;18.582;2023-12-07T04:30:10;74.80;;;24.58;;
48363;SDS011;34170;54.364;18.582;2023-12-07T04:32:38;71.15;;;25.50;;
48363;SDS011;34170;54.364;18.582;2023-12-07T04:35:06;83.22;;;31.02;;
48363;SDS011;34170;54.364;18.582;2023-12-07T04:37:34;81.32;;;26.73;;
48363;SDS011;34170;54.364;18.582;2023-12-07T04:40:01;75.70;;;27.33;;
48363;SDS011;34170;54.364;18.582;2023-12-07T04:42:32;81.35;;;30.83;;
48363;SDS011;34170;54.364;18.582;2023-12-07T04:44:59;78.35;;;24.98;;
48363;SDS011;34170;54.364;18.582;2023-12-07T04:47:28;85.82;;;29.30;;
48363;SDS011;34170;54.364;18.582;2023-12-07T04:49:55;78.32;;;25.55;;
48363;SDS011;34170;54.364;18.582;2023-12-07T04:52:23;86.18;;;26.98;;
48363;SDS011;34170;54.364;18.582;2023-12-07T04:54:51;75.75;;;24.65;;
48363;SDS011;34170;54.364;18.582;2023-12-07T04:57:18;78.60;;;25.75;;
48363;SDS011;34170;54.364;18.582;2023-12-07T04:59:46;76.72;;;27.23;;
48363;SDS011;34170;54.364;18.582;2023-12-07T05:02:14;71.20;;;27.42;;
48363;SDS011;34170;54.364;18.582;2023-12-07T05:04:45;78.45;;;31.63;;
48363;SDS011;34170;54.364;18.582;2023-12-07T05:07:13;80.95;;;28.40;;
48363;SDS011;34170;54.364;18.582;2023-12-07T05:09:41;73.38;;;25.10;;
48363;SDS011;34170;54.364;18.582;2023-12-07T05:12:08;80.35;;;27.10;;
48363;SDS011;34170;54.364;18.582;2023-12-07T05:14:36;77.22;;;25.92;;
48363;SDS011;34170;54.364;18.582;2023-12-07T05:17:03;71.63;;;25.25;;
48363;SDS011;34170;54.364;18.582;2023-12-07T05:19:32;73.13;;;25.85;;
48363;SDS011;34170;54.364;18.582;2023-12-07T05:22:00;69.72;;;23.73;;
48363;SDS011;34170;54.364;18.582;2023-12-07T05:24:27;70.18;;;24.58;;
48363;SDS011;34170;54.364;18.582;2023-12-07T05:26:55;74.88;;;25.90;;
48363;SDS011;34170;54.364;18.582;2023-12-07T05:29:23;76.18;;;24.77;;
48363;SDS011;34170;54.364;18.582;2023-12-07T05:31:50;77.90;;;26.20;;
48363;SDS011;34170;54.364;18.582;2023-12-07T05:34:18;70.63;;;23.67;;
48363;SDS011;34170;54.364;18.582;2023-12-07T05:36:46;65.97;;;25.20;;
48363;SDS011;34170;54.364;18.582;2023-12-07T05:39:15;72.05;;;24.95;;
48363;SDS011;34170;54.364;18.582;2023-12-07T05:41:44;75.82;;;26.50;;
48363;SDS011;34170;54.364;18.582;2023-12-07T05:44:14;71.65;;;27.08;;
48363;SDS011;34170;54.364;18.582;2023-12-07T05:46:41;75.75;;;26.48;;
48363;SDS011;34170;54.364;18.582;2023-12-07T05:49:11;68.90;;;23.98;;
48363;SDS011;34170;54.364;18.582;2023-12-07T05:51:39;70.47;;;26.95;;
48363;SDS011;34170;54.364;18.582;2023-12-07T05:54:07;75.97;;;23.33;;
48363;SDS011;34170;54.364;18.582;2023-12-07T05:56:34;62.75;;;23.90;;
48363;SDS011;34170;54.364;18.582;2023-12-07T05:59:02;64.28;;;23.85;;
48363;SDS011;34170;54.364;18.582;2023-12-07T06:01:30;78.00;;;27.02;;
48363;SDS011;34170;54.364;18.582;2023-12-07T06:03:58;81.30;;;28.05;;
48363;SDS011;34170;54.364;18.582;2023-12-07T06:06:25;79.60;;;28.05;;
48363;SDS011;34170;54.364;18.582;2023-12-07T06:08:53;85.72;;;27.02;;
48363;SDS011;34170;54.364;18.582;2023-12-07T06:11:21;88.57;;;28.80;;
48363;SDS011;34170;54.364;18.582;2023-12-07T06:13:48;76.53;;;26.98;;
48363;SDS011;34170;54.364;18.582;2023-12-07T06:16:16;89.30;;;28.88;;
48363;SDS011;34170;54.364;18.582;2023-12-07T06:18:45;95.55;;;31.33;;
48363;SDS011;34170;54.364;18.582;2023-12-07T06:21:13;83.00;;;27.00;;
48363;SDS011;34170;54.364;18.582;2023-12-07T06:23:41;87.55;;;30.00;;
48363;SDS011;34170;54.364;18.582;2023-12-07T06:26:09;92.53;;;30.42;;
48363;SDS011;34170;54.364;18.582;2023-12-07T06:28:36;91.40;;;31.42;;
48363;SDS011;34170;54.364;18.582;2023-12-07T06:31:04;92.65;;;30.45;;
48363;SDS011;34170;54.364;18.582;2023-12-07T06:33:36;92.97;;;30.55;;
48363;SDS011;34170;54.364;18.582;2023-12-07T06:36:04;98.95;;;34.63;;
48363;SDS011;34170;54.364;18.582;2023-12-07T06:38:31;89.88;;;29.40;;
48363;SDS011;34170;54.364;18.582;2023-12-07T06:40:59;96.28;;;29.00;;
48363;SDS011;34170;54.364;18.582;2023-12-07T06:43:26;85.38;;;27.20;;
48363;SDS011;34170;54.364;18.582;2023-12-07T06:45:54;100.45;;;32.05;;
48363;SDS011;34170;54.364;18.582;2023-12-07T06:48:21;94.55;;;30.48;;
48363;SDS011;34170;54.364;18.582;2023-12-07T06:50:49;89.65;;;28.35;;
48363;SDS011;34170;54.364;18.582;2023-12-07T06:53:17;104.60;;;30.70;;
48363;SDS011;34170;54.364;18.582;2023-12-07T06:55:45;96.78;;;30.40;;
48363;SDS011;34170;54.364;18.582;2023-12-07T06:58:13;99.13;;;35.13;;
48363;SDS011;34170;54.364;18.582;2023-12-07T07:00:41;95.40;;;33.03;;
48363;SDS011;34170;54.364;18.582;2023-12-07T07:03:08;96.32;;;30.02;;
48363;SDS011;34170;54.364;18.582;2023-12-07T07:05:36;95.60;;;32.15;;
48363;SDS011;34170;54.364;18.582;2023-12-07T07:08:04;111.78;;;31.85;;
48363;SDS011;34170;54.364;18.582;2023-12-07T07:10:31;94.18;;;30.65;;
48363;SDS011;34170;54.364;18.582;2023-12-07T07:12:59;99.40;;;33.20;;
48363;SDS011;34170;54.364;18.582;2023-12-07T07:15:30;101.07;;;33.45;;
48363;SDS011;34170;54.364;18.582;2023-12-07T07:17:59;104.07;;;35.35;;
48363;SDS011;34170;54.364;18.582;2023-12-07T07:20:28;109.85;;;33.17;;
48363;SDS011;34170;54.364;18.582;2023-12-07T07:22:55;108.32;;;34.88;;
48363;SDS011;34170;54.364;18.582;2023-12-07T07:25:23;112.15;;;33.20;;
48363;SDS011;34170;54.364;18.582;2023-12-07T07:27:51;98.47;;;31.25;;
48363;SDS011;34170;54.364;18.582;2023-12-07T07:30:20;110.43;;;34.28;;
48363;SDS011;34170;54.364;18.582;2023-12-07T07:32:48;87.47;;;29.73;;
48363;SDS011;34170;54.364;18.582;2023-12-07T07:35:17;107.85;;;33.53;;
48363;SDS011;34170;54.364;18.582;2023-12-07T07:37:45;104.40;;;31.70;;
48363;SDS011;34170;54.364;18.582;2023-12-07T07:40:13;109.88;;;33.13;;
48363;SDS011;34170;54.364;18.582;2023-12-07T07:42:40;98.70;;;30.90;;
48363;SDS011;34170;54.364;18.582;2023-12-07T07:45:09;107.20;;;33.28;;
48363;SDS011;34170;54.364;18.582;2023-12-07T07:47:37;96.80;;;31.30;;
48363;SDS011;34170;54.364;18.582;2023-12-07T07:50:05;98.53;;;31.38;;
48363;SDS011;34170;54.364;18.582;2023-12-07T07:52:34;96.95;;;32.03;;
48363;SDS011;34170;54.364;18.582;2023-12-07T07:55:03;98.07;;;33.60;;
48363;SDS011;34170;54.364;18.582;2023-12-07T07:57:32;107.38;;;33.20;;
48363;SDS011;34170;54.364;18.582;2023-12-07T08:00:00;103.63;;;31.80;;
48363;SDS011;34170;54.364;18.582;2023-12-07T08:02:27;92.78;;;32.28;;
48363;SDS011;34170;54.364;18.582;2023-12-07T08:04:55;112.97;;;37.15;;
48363;SDS011;34170;54.364;18.582;2023-12-07T08:07:22;96.35;;;31.30;;
48363;SDS011;34170;54.364;18.582;2023-12-07T08:09:50;94.65;;;31.52;;
48363;SDS011;34170;54.364;18.582;2023-12-07T08:12:18;105.43;;;35.35;;
48363;SDS011;34170;54.364;18.582;2023-12-07T08:14:46;100.25;;;32.63;;
48363;SDS011;34170;54.364;18.582;2023-12-07T08:17:15;110.90;;;38.13;;
48363;SDS011;34170;54.364;18.582;2023-12-07T08:19:43;111.13;;;37.58;;
48363;SDS011;34170;54.364;18.582;2023-12-07T08:22:10;117.75;;;35.85;;
48363;SDS011;34170;54.364;18.582;2023-12-07T08:24:39;99.30;;;33.97;;
48363;SDS011;34170;54.364;18.582;2023-12-07T08:27:07;106.82;;;35.65;;
48363;SDS011;34170;54.364;18.582;2023-12-07T08:29:34;102.40;;;32.97;;
48363;SDS011;34170;54.364;18.582;2023-12-07T08:32:03;105.43;;;33.92;;
48363;SDS011;34170;54.364;18.582;2023-12-07T08:34:31;100.00;;;34.15;;
48363;SDS011;34170;54.364;18.582;2023-12-07T08:36:59;113.78;;;36.28;;
48363;SDS011;34170;54.364;18.582;2023-12-07T08:39:27;104.40;;;35.30;;
48363;SDS011;34170;54.364;18.582;2023-12-07T08:41:55;105.43;;;35.17;;
48363;SDS011;34170;54.364;18.582;2023-12-07T08:44:22;108.57;;;33.65;;
48363;SDS011;34170;54.364;18.582;2023-12-07T08:46:50;108.70;;;33.83;;
48363;SDS011;34170;54.364;18.582;2023-12-07T08:49:17;107.13;;;34.38;;
48363;SDS011;34170;54.364;18.582;2023-12-07T08:51:45;98.90;;;32.10;;
48363;SDS011;34170;54.364;18.582;2023-12-07T08:54:33;97.35;;;33.72;;
48363;SDS011;34170;54.364;18.582;2023-12-07T08:57:00;106.85;;;32.88;;
48363;SDS011;34170;54.364;18.582;2023-12-07T08:59:28;94.45;;;32.40;;
48363;SDS011;34170;54.364;18.582;2023-12-07T09:01:57;92.45;;;30.85;;
48363;SDS011;34170;54.364;18.582;2023-12-07T09:04:25;106.88;;;36.03;;
48363;SDS011;34170;54.364;18.582;2023-12-07T09:06:52;92.13;;;32.15;;
48363;SDS011;34170;54.364;18.582;2023-12-07T09:09:20;93.95;;;35.20;;
48363;SDS011;34170;54.364;18.582;2023-12-07T09:11:49;93.78;;;31.63;;
48363;SDS011;34170;54.364;18.582;2023-12-07T09:14:17;90.28;;;33.65;;
48363;SDS011;34170;54.364;18.582;2023-12-07T09:16:44;95.65;;;31.52;;
48363;SDS011;34170;54.364;18.582;2023-12-07T09:19:14;89.43;;;31.15;;
48363;SDS011;34170;54.364;18.582;2023-12-07T09:21:42;97.65;;;35.40;;
48363;SDS011;34170;54.364;18.582;2023-12-07T09:24:09;90.95;;;35.58;;
48363;SDS011;34170;54.364;18.582;2023-12-07T09:26:37;92.22;;;32.15;;
48363;SDS011;34170;54.364;18.582;2023-12-07T09:29:04;93.40;;;32.47;;
48363;SDS011;34170;54.364;18.582;2023-12-07T09:31:32;94.97;;;34.65;;
48363;SDS011;34170;54.364;18.582;2023-12-07T09:34:00;87.93;;;30.63;;
48363;SDS011;34170;54.364;18.582;2023-12-07T09:36:38;83.50;;;31.88;;
48363;SDS011;34170;54.364;18.582;2023-12-07T09:39:06;92.68;;;30.50;;
48363;SDS011;34170;54.364;18.582;2023-12-07T09:41:33;90.60;;;32.38;;
48363;SDS011;34170;54.364;18.582;2023-12-07T09:44:01;89.75;;;30.10;;
48363;SDS011;34170;54.364;18.582;2023-12-07T09:46:30;99.90;;;32.40;;
48363;SDS011;34170;54.364;18.582;2023-12-07T09:48:59;91.47;;;32.35;;
48363;SDS011;34170;54.364;18.582;2023-12-07T09:51:27;90.80;;;33.03;;
48363;SDS011;34170;54.364;18.582;2023-12-07T09:53:59;94.07;;;32.72;;
48363;SDS011;34170;54.364;18.582;2023-12-07T09:56:26;98.07;;;31.92;;
48363;SDS011;34170;54.364;18.582;2023-12-07T09:58:54;87.60;;;31.67;;
48363;SDS011;34170;54.364;18.582;2023-12-07T10:01:21;91.28;;;30.60;;
48363;SDS011;34170;54.364;18.582;2023-12-07T10:04:14;96.00;;;32.92;;
48363;SDS011;34170;54.364;18.582;2023-12-07T10:06:46;86.70;;;31.73;;
48363;SDS011;34170;54.364;18.582;2023-12-07T10:09:17;65.17;;;22.13;;
48363;SDS011;34170;54.364;18.582;2023-12-07T10:12:01;92.55;;;32.08;;
48363;SDS011;34170;54.364;18.582;2023-12-07T10:14:31;83.38;;;32.03;;
48363;SDS011;34170;54.364;18.582;2023-12-07T10:16:59;87.40;;;30.17;;
48363;SDS011;34170;54.364;18.582;2023-12-07T10:19:27;93.60;;;30.15;;
48363;SDS011;34170;54.364;18.582;2023-12-07T10:21:58;79.47;;;29.73;;
48363;SDS011;34170;54.364;18.582;2023-12-07T10:24:27;85.32;;;30.15;;
48363;SDS011;34170;54.364;18.582;2023-12-07T10:26:55;90.97;;;33.15;;
48363;SDS011;34170;54.364;18.582;2023-12-07T10:29:30;78.03;;;31.00;;
48363;SDS011;34170;54.364;18.582;2023-12-07T10:32:00;92.05;;;31.27;;
48363;SDS011;34170;54.364;18.582;2023-12-07T10:34:30;79.30;;;31.05;;
48363;SDS011;34170;54.364;18.582;2023-12-07T10:37:00;87.47;;;32.58;;
48363;SDS011;34170;54.364;18.582;2023-12-07T10:39:28;78.03;;;28.65;;
48363;SDS011;34170;54.364;18.582;2023-12-07T10:42:02;84.65;;;32.95;;
48363;SDS011;34170;54.364;18.582;2023-12-07T10:44:34;88.75;;;31.45;;
48363;SDS011;34170;54.364;18.582;2023-12-07T10:47:07;84.10;;;33.25;;
48363;SDS011;34170;54.364;18.582;2023-12-07T10:49:39;95.03;;;33.13;;
48363;SDS011;34170;54.364;18.582;2023-12-07T10:52:14;102.22;;;35.28;;
48363;SDS011;34170;54.364;18.582;2023-12-07T10:57:26;89.70;;;32.25;;
48363;SDS011;34170;54.364;18.582;2023-12-07T10:59:55;97.22;;;34.00;;
48363;SDS011;34170;54.364;18.582;2023-12-07T11:02:24;93.07;;;31.88;;
48363;SDS011;34170;54.364;18.582;2023-12-07T11:04:55;86.68;;;32.47;;
48363;SDS011;34170;54.364;18.582;2023-12-07T11:07:25;91.63;;;32.60;;
48363;SDS011;34170;54.364;18.582;2023-12-07T11:10:04;87.40;;;31.27;;
48363;SDS011;34170;54.364;18.582;2023-12-07T11:12:40;81.95;;;31.88;;
48363;SDS011;34170;54.364;18.582;2023-12-07T11:15:16;94.40;;;32.33;;
48363;SDS011;34170;54.364;18.582;2023-12-07T11:17:51;88.97;;;30.65;;
48363;SDS011;34170;54.364;18.582;2023-12-07T11:20:21;89.78;;;31.17;;
48363;SDS011;34170;54.364;18.582;2023-12-07T11:22:59;86.97;;;29.55;;
48363;SDS011;34170;54.364;18.582;2023-12-07T11:25:26;80.97;;;29.60;;
48363;SDS011;34170;54.364;18.582;2023-12-07T11:28:03;75.72;;;28.65;;
48363;SDS011;34170;54.364;18.582;2023-12-07T11:30:34;83.28;;;30.77;;
48363;SDS011;34170;54.364;18.582;2023-12-07T11:33:03;87.63;;;30.45;;
48363;SDS011;34170;54.364;18.582;2023-12-07T11:35:32;76.15;;;29.73;;
48363;SDS011;34170;54.364;18.582;2023-12-07T11:38:01;84.43;;;29.30;;
48363;SDS011;34170;54.364;18.582;2023-12-07T11:40:40;78.00;;;28.23;;
48363;SDS011;34170;54.364;18.582;2023-12-07T11:46:08;79.65;;;29.60;;
48363;SDS011;34170;54.364;18.582;2023-12-07T11:48:37;93.82;;;32.15;;
48363;SDS011;34170;54.364;18.582;2023-12-07T11:51:05;93.50;;;34.45;;
48363;SDS011;34170;54.364;18.582;2023-12-07T11:53:37;86.38;;;32.00;;
48363;SDS011;34170;54.364;18.582;2023-12-07T11:56:06;81.90;;;30.90;;
48363;SDS011;34170;54.364;18.582;2023-12-07T11:58:36;82.47;;;31.25;;
48363;SDS011;34170;54.364;18.582;2023-12-07T12:01:08;83.68;;;32.53;;
48363;SDS011;34170;54.364;18.582;2023-12-07T12:03:37;86.88;;;31.52;;
48363;SDS011;34170;54.364;18.582;2023-12-07T12:06:05;89.88;;;32.88;;
48363;SDS011;34170;54.364;18.582;2023-12-07T12:08:35;88.95;;;35.03;;
48363;SDS011;34170;54.364;18.582;2023-12-07T12:11:03;84.43;;;30.15;;
48363;SDS011;34170;54.364;18.582;2023-12-07T12:13:34;98.72;;;34.42;;
48363;SDS011;34170;54.364;18.582;2023-12-07T12:16:03;91.95;;;32.85;;
48363;SDS011;34170;54.364;18.582;2023-12-07T12:18:33;86.85;;;31.60;;
48363;SDS011;34170;54.364;18.582;2023-12-07T12:21:03;94.28;;;33.50;;
48363;SDS011;34170;54.364;18.582;2023-12-07T12:23:30;97.32;;;37.55;;
48363;SDS011;34170;54.364;18.582;2023-12-07T12:25:58;100.93;;;37.05;;
48363;SDS011;34170;54.364;18.582;2023-12-07T12:28:26;93.95;;;35.80;;
48363;SDS011;34170;54.364;18.582;2023-12-07T12:30:54;97.65;;;34.97;;
48363;SDS011;34170;54.364;18.582;2023-12-07T12:33:22;102.13;;;39.55;;
48363;SDS011;34170;54.364;18.582;2023-12-07T12:36:01;105.55;;;38.03;;
48363;SDS011;34170;54.364;18.582;2023-12-07T12:38:30;89.47;;;33.50;;
48363;SDS011;34170;54.364;18.582;2023-12-07T12:41:08;95.25;;;35.42;;
48363;SDS011;34170;54.364;18.582;2023-12-07T12:43:36;87.38;;;32.92;;
48363;SDS011;34170;54.364;18.582;2023-12-07T12:46:04;96.47;;;34.22;;
48363;SDS011;34170;54.364;18.582;2023-12-07T12:48:33;98.30;;;35.33;;
48363;SDS011;34170;54.364;18.582;2023-12-07T12:51:08;96.18;;;34.90;;
48363;SDS011;34170;54.364;18.582;2023-12-07T12:53:45;85.68;;;33.38;;
48363;SDS011;34170;54.364;18.582;2023-12-07T12:56:18;90.35;;;33.35;;
48363;SDS011;34170;54.364;18.582;2023-12-07T12:58:48;87.88;;;32.50;;
48363;SDS011;34170;54.364;18.582;2023-12-07T13:01:17;91.72;;;36.08;;
48363;SDS011;34170;54.364;18.582;2023-12-07T13:03:45;101.78;;;35.75;;
48363;SDS011;34170;54.364;18.582;2023-12-07T13:06:14;93.22;;;33.67;;
48363;SDS011;34170;54.364;18.582;2023-12-07T13:08:46;97.38;;;34.53;;
48363;SDS011;34170;54.364;18.582;2023-12-07T13:11:15;88.00;;;34.78;;
48363;SDS011;34170;54.364;18.582;2023-12-07T13:13:44;94.15;;;33.78;;
48363;SDS011;34170;54.364;18.582;2023-12-07T13:16:18;75.93;;;25.95;;
48363;SDS011;34170;54.364;18.582;2023-12-07T13:18:47;90.68;;;35.08;;
48363;SDS011;34170;54.364;18.582;2023-12-07T13:21:15;82.70;;;31.20;;
48363;SDS011;34170;54.364;18.582;2023-12-07T13:23:43;90.10;;;32.70;;
48363;SDS011;34170;54.364;18.582;2023-12-07T13:26:14;101.05;;;35.88;;
48363;SDS011;34170;54.364;18.582;2023-12-07T13:28:41;92.00;;;33.40;;
48363;SDS011;34170;54.364;18.582;2023-12-07T13:31:09;101.80;;;34.90;;
48363;SDS011;34170;54.364;18.582;2023-12-07T13:33:37;100.78;;;33.67;;
48363;SDS011;34170;54.364;18.582;2023-12-07T13:36:19;105.45;;;35.20;;
48363;SDS011;34170;54.364;18.582;2023-12-07T13:38:48;100.45;;;35.88;;
48363;SDS011;34170;54.364;18.582;2023-12-07T13:41:15;93.40;;;34.88;;
48363;SDS011;34170;54.364;18.582;2023-12-07T13:43:43;91.75;;;35.75;;
48363;SDS011;34170;54.364;18.582;2023-12-07T13:46:11;89.68;;;32.72;;
48363;SDS011;34170;54.364;18.582;2023-12-07T13:48:40;86.63;;;33.05;;
48363;SDS011;34170;54.364;18.582;2023-12-07T13:51:08;87.00;;;32.92;;
48363;SDS011;34170;54.364;18.582;2023-12-07T13:53:35;90.13;;;32.70;;
48363;SDS011;34170;54.364;18.582;2023-12-07T13:56:03;83.75;;;32.17;;
48363;SDS011;34170;54.364;18.582;2023-12-07T13:58:31;89.07;;;35.00;;
48363;SDS011;34170;54.364;18.582;2023-12-07T14:00:59;87.32;;;33.42;;
48363;SDS011;34170;54.364;18.582;2023-12-07T14:03:27;93.88;;;35.88;;
48363;SDS011;34170;54.364;18.582;2023-12-07T14:05:55;102.07;;;35.90;;
48363;SDS011;34170;54.364;18.582;2023-12-07T14:08:22;93.38;;;33.55;;
48363;SDS011;34170;54.364;18.582;2023-12-07T14:10:50;100.32;;;37.10;;
48363;SDS011;34170;54.364;18.582;2023-12-07T14:13:18;90.63;;;34.35;;
48363;SDS011;34170;54.364;18.582;2023-12-07T14:15:45;92.45;;;33.65;;
48363;SDS011;34170;54.364;18.582;2023-12-07T14:18:13;104.90;;;37.60;;
48363;SDS011;34170;54.364;18.582;2023-12-07T14:20:41;114.22;;;39.30;;